createdAt,value
2022-10-19T04:04:49.407Z,99673.44
2022-10-19T04:09:02.016Z,99673.59
2022-10-19T04:13:13.518Z,99668.19
2022-10-19T04:17:25.567Z,99665.88
2022-10-19T04:21:38.362Z,99668.84
2022-10-19T04:25:50.198Z,99670.16
2022-10-19T04:30:01.731Z,99672.63
2022-10-19T04:34:13.264Z,99665.91
2022-10-19T04:38:24.764Z,99668.84
2022-10-19T04:42:36.289Z,99668.19
2022-10-19T04:46:47.783Z,99680.44
2022-10-19T04:50:59.467Z,99679.97
2022-10-19T04:55:10.968Z,99683.72
2022-10-19T04:59:22.483Z,99675.69
2022-10-19T05:03:33.988Z,99674.38
2022-10-19T05:07:45.503Z,99670.91
2022-10-19T05:11:57.083Z,99665.50
2022-10-19T05:16:12.036Z,99665.53
2022-10-19T05:20:24.174Z,99670.75
2022-10-19T05:24:35.680Z,99659.28
2022-10-19T05:28:56.131Z,99670.44
2022-10-19T05:33:07.722Z,99659.94
2022-10-19T05:37:19.367Z,99650.41
2022-10-19T05:41:31.103Z,99655.00
2022-10-19T05:45:42.688Z,99648.28
2022-10-19T05:49:54.221Z,99640.75
2022-10-19T05:54:05.840Z,99651.09
2022-10-19T05:58:17.330Z,99660.94
2022-10-19T06:02:28.847Z,99647.47
2022-10-19T06:06:41.455Z,99635.19
2022-10-19T06:10:53.033Z,99630.13
2022-10-19T06:15:04.696Z,99633.38
2022-10-19T06:19:16.205Z,99639.13
2022-10-19T06:23:27.888Z,99639.63
2022-10-19T06:27:39.587Z,99647.16
2022-10-19T06:31:52.136Z,99648.78
2022-10-19T06:36:15.908Z,99647.66
2022-10-19T06:40:27.754Z,99642.94
2022-10-19T06:44:39.449Z,99634.88
2022-10-19T06:48:57.084Z,99626.53
2022-10-19T06:53:08.741Z,99620.28
2022-10-19T06:57:20.318Z,99621.94
2022-10-19T07:01:31.837Z,99634.69
2022-10-19T07:05:43.348Z,99645.72
2022-10-19T07:09:54.884Z,99630.97
2022-10-19T07:14:06.386Z,99637.19
2022-10-19T07:18:17.907Z,99639.31
2022-10-19T07:22:29.449Z,99646.72
2022-10-19T07:26:40.953Z,99654.56
2022-10-19T07:30:52.483Z,99651.47
2022-10-19T07:35:04.345Z,99659.31
2022-10-19T07:39:19.302Z,99650.16
2022-10-19T07:43:30.984Z,99654.41
2022-10-19T07:47:42.599Z,99648.66
2022-10-19T07:51:55.039Z,99647.50
2022-10-19T07:56:15.503Z,99654.88
2022-10-19T08:00:27.130Z,99650.97
2022-10-19T08:09:18.885Z,99646.53
2022-10-19T08:13:40.398Z,99642.91
2022-10-19T08:17:51.886Z,99645.66
2022-10-19T08:22:03.407Z,99643.53
2022-10-19T08:26:14.946Z,99635.81
2022-10-19T08:30:26.485Z,99636.47
2022-10-19T08:34:38.014Z,99636.66
2022-10-19T08:38:50.172Z,99637.97
2022-10-19T08:43:20.379Z,99637.31
2022-10-19T08:47:57.106Z,99634.50
2022-10-19T08:52:20.287Z,99617.13
2022-10-19T08:56:50.659Z,99614.16
2022-10-19T09:01:25.223Z,99624.78
2022-10-19T09:06:02.508Z,99621.16
2022-10-19T09:10:14.593Z,99615.22
2022-10-19T09:14:32.516Z,99611.25
2022-10-19T09:18:46.830Z,99604.50
2022-10-19T09:23:27.420Z,99594.81
2022-10-19T09:27:41.327Z,99588.03
2022-10-19T09:36:22.560Z,99587.94
2022-10-19T09:40:39.124Z,99588.38
2022-10-19T09:44:51.965Z,99585.78
2022-10-19T09:49:05.005Z,99578.31
2022-10-19T09:53:21.635Z,99580.94
2022-10-19T09:57:33.491Z,99576.53
2022-10-19T10:01:45.380Z,99568.66
2022-10-19T10:06:05.758Z,99573.59
2022-10-19T10:10:28.256Z,99576.13
2022-10-19T10:14:49.907Z,99576.13
2022-10-19T10:19:07.688Z,99574.38
2022-10-19T10:23:29.073Z,99571.16
2022-10-19T10:27:40.590Z,99571.56
2022-10-19T10:32:00.214Z,99577.59
2022-10-19T10:36:12.558Z,99577.00
2022-10-19T10:40:28.017Z,99569.56
2022-10-19T10:44:47.745Z,99565.44
2022-10-19T10:49:03.039Z,99556.53
2022-10-19T10:53:43.996Z,99549.72
2022-10-19T10:58:17.908Z,99556.50
2022-10-19T11:03:08.019Z,99548.38
2022-10-19T11:07:26.482Z,99552.00
2022-10-19T11:11:46.379Z,99539.03
2022-10-19T11:15:57.840Z,99534.63
2022-10-19T11:20:16.136Z,99535.88
2022-10-19T11:25:10.782Z,99516.91
2022-10-19T11:29:38.319Z,99510.94
2022-10-19T11:34:21.218Z,99499.16
2022-10-19T11:38:53.973Z,99479.28
2022-10-19T11:43:27.211Z,99477.50
2022-10-19T11:47:55.622Z,99468.81
2022-10-19T11:52:10.101Z,99458.09
2022-10-19T11:56:39.297Z,99456.06
2022-10-19T12:01:00.403Z,99453.47
2022-10-19T12:05:42.711Z,99442.41
2022-10-19T12:10:14.113Z,99445.59
2022-10-19T12:14:31.780Z,99433.41
2022-10-19T12:18:49.184Z,99436.06
2022-10-19T12:23:06.206Z,99427.66
2022-10-19T12:27:35.714Z,99423.09
2022-10-19T12:31:49.099Z,99402.25
2022-10-19T12:36:12.643Z,99400.84
2022-10-19T12:40:33.987Z,99391.22
2022-10-19T12:45:23.039Z,99385.31
2022-10-19T12:49:46.026Z,99386.75
2022-10-19T12:54:09.397Z,99368.94
2022-10-19T12:58:22.837Z,99369.75
2022-10-19T13:02:36.622Z,99350.28
2022-10-19T13:07:09.082Z,99352.69
2022-10-19T13:11:21.511Z,99344.00
2022-10-19T13:15:36.015Z,99341.34
2022-10-19T13:19:47.524Z,99335.59
2022-10-19T13:24:30.086Z,99345.34
2022-10-19T13:28:57.456Z,99331.56
2022-10-19T13:33:27.470Z,99330.31
2022-10-19T13:37:39.169Z,99330.69
2022-10-19T13:41:52.332Z,99331.31
2022-10-19T13:46:16.956Z,99327.44
2022-10-19T13:50:54.145Z,99323.78
2022-10-19T13:55:20.832Z,99319.34
2022-10-19T13:59:54.775Z,99320.94
2022-10-19T14:04:15.338Z,99326.16
2022-10-19T14:08:59.851Z,99339.34
2022-10-19T14:13:14.647Z,99333.31
2022-10-19T14:17:33.887Z,99316.03
2022-10-19T14:21:45.982Z,99323.75
2022-10-19T14:26:01.620Z,99313.59
2022-10-19T14:30:23.221Z,99310.97
2022-10-19T14:34:40.215Z,99297.13
2022-10-19T14:38:55.944Z,99297.28
2022-10-19T14:43:26.431Z,99290.63
2022-10-19T14:47:58.096Z,99302.13
2022-10-19T14:52:18.065Z,99296.47
2022-10-19T14:56:51.340Z,99299.72
2022-10-19T15:01:03.007Z,99304.16
2022-10-19T15:05:24.204Z,99298.44
2022-10-19T15:09:47.916Z,99287.13
2022-10-19T15:14:14.880Z,99290.34
2022-10-19T15:18:48.154Z,99290.22
2022-10-19T15:23:02.444Z,99284.34
2022-10-19T15:27:20.583Z,99279.97
2022-10-19T15:31:32.087Z,99279.13
2022-10-19T15:35:44.553Z,99269.13
2022-10-19T15:39:56.419Z,99266.78
2022-10-19T15:44:32.039Z,99261.84
2022-10-19T15:48:52.302Z,99266.88
2022-10-19T15:53:06.657Z,99275.50
2022-10-19T15:57:40.475Z,99272.22
2022-10-19T16:01:54.966Z,99266.69
2022-10-19T16:06:08.403Z,99259.94
2022-10-19T16:10:25.497Z,99252.91
2022-10-19T16:14:37.653Z,99250.38
2022-10-19T16:18:49.497Z,99243.59
2022-10-19T16:23:01.043Z,99237.97
2022-10-19T16:27:16.243Z,99239.50
2022-10-19T16:31:27.977Z,99234.38
2022-10-19T16:35:39.548Z,99232.22
2022-10-19T16:39:51.051Z,99232.97
2022-10-19T16:44:02.698Z,99228.28
2022-10-19T16:48:14.225Z,99234.25
2022-10-19T16:52:27.085Z,99232.97
2022-10-19T16:56:46.316Z,99242.88
2022-10-19T17:01:01.321Z,99239.41
2022-10-19T17:05:12.884Z,99234.16
2022-10-19T17:13:59.322Z,99230.09
2022-10-19T17:18:11.037Z,99234.16
2022-10-19T17:22:22.572Z,99238.34
2022-10-19T17:26:45.135Z,99241.53
2022-10-19T17:30:57.785Z,99238.59
2022-10-19T17:35:09.408Z,99235.50
2022-10-19T17:39:25.663Z,99243.50
2022-10-19T17:43:43.219Z,99224.47
2022-10-19T17:47:56.034Z,99228.38
2022-10-19T17:52:07.518Z,99230.63
2022-10-19T17:56:20.760Z,99234.22
2022-10-19T18:00:32.244Z,99227.72
2022-10-19T18:04:43.736Z,99220.91
2022-10-19T18:08:56.695Z,99228.34
2022-10-19T18:13:09.143Z,99218.09
2022-10-19T18:17:24.048Z,99221.63
2022-10-19T18:21:40.977Z,99222.19
2022-10-19T18:25:54.358Z,99213.56
2022-10-19T18:30:06.527Z,99209.94
2022-10-19T18:34:21.240Z,99212.75
2022-10-19T18:38:32.837Z,99202.13
2022-10-19T18:42:44.532Z,99201.13
2022-10-19T18:46:57.162Z,99201.31
2022-10-19T18:51:08.723Z,99211.91
2022-10-19T18:55:20.274Z,99194.69
2022-10-19T18:59:31.771Z,99193.03
2022-10-19T19:03:45.443Z,99190.16
2022-10-19T19:07:57.104Z,99178.09
2022-10-19T19:12:08.821Z,99177.44
2022-10-19T19:16:21.122Z,99167.28
2022-10-19T19:20:32.823Z,99170.81
2022-10-19T19:24:44.419Z,99168.00
2022-10-19T19:28:57.254Z,99162.19
2022-10-19T19:33:09.155Z,99163.31
2022-10-19T19:37:20.720Z,99160.84
2022-10-19T19:41:34.027Z,99173.34
2022-10-19T19:45:56.732Z,99177.66
2022-10-19T19:50:08.805Z,99175.69
2022-10-19T19:54:21.331Z,99178.50
2022-10-19T19:58:32.852Z,99168.00
2022-10-19T20:02:44.619Z,99167.53
2022-10-19T20:06:56.140Z,99164.97
2022-10-19T20:11:10.106Z,99172.97
2022-10-19T20:15:21.892Z,99165.31
2022-10-19T20:19:33.402Z,99161.25
2022-10-19T20:23:46.355Z,99160.19
2022-10-19T20:27:57.866Z,99170.59
2022-10-19T20:32:09.402Z,99165.06
2022-10-19T20:36:24.040Z,99167.38
2022-10-19T20:40:37.623Z,99155.78
2022-10-19T20:44:49.168Z,99159.06
2022-10-19T20:49:02.956Z,99163.16
2022-10-19T20:53:14.463Z,99156.59
2022-10-19T20:57:25.991Z,99143.84
2022-10-19T21:01:39.389Z,99136.16
2022-10-19T21:05:50.924Z,99131.75
2022-10-19T21:10:02.550Z,99128.34
2022-10-19T21:14:22.442Z,99126.88
2022-10-19T21:18:37.307Z,99137.00
2022-10-19T21:22:48.822Z,99132.75
2022-10-19T21:27:01.618Z,99123.91
